Terminal Aerodrome Forecast
Issued by NWS Cleveland, OH

Home | Current Version | Previous Version | Graphics & Text | Print | Product List | Glossary On
Versions: 1 2 3 4 5 6 7 8 9 10 11 12 13 14 15 16 17 18 19 20
000
FTUS41 KCLE 301729
TAFMFD
TAF
KMFD 301729Z 3018/3118 VRB03KT P6SM FEW060 BKN250
     FM310800 23004KT P6SM VCSH BKN050 OVC100
     FM311200 23006KT 5SM BR OVC040 PROB30 3112/3116 3SM -SHRA
     FM311700 34008KT P6SM BKN045=

USA.gov is the U.S. government's official web portal to all federal, state and local government web resources and services.